Time;durP1;ratioP1;P1;durP2;ratioP2;P2;SDS_P1;SDS_P2;PMS_P1;PMS_P2;Temp;Humidity;BMP_temperature;BMP_pressure;BME280_temperature;BME280_humidity;BME280_pressure;Samples;Min_cycle;Max_cycle;Signal;HPM_P1;HPM_P2
2021/12/09 00:01:01;;;;;;;40.38;19.75;;;0.00;99.90;;;;;;5068743;28;20105;-43
2021/12/09 00:03:28;;;;;;;42.50;19.00;;;0.00;99.90;;;;;;5068676;28;20536;-43
2021/12/09 00:05:58;;;;;;;43.05;19.23;;;0.10;99.90;;;;;;5068548;28;20052;-43
2021/12/09 00:08:26;;;;;;;42.78;20.25;;;0.00;99.90;;;;;;5068715;28;20098;-43
2021/12/09 00:10:53;;;;;;;46.92;21.45;;;1.60;99.90;;;;;;5050504;28;20041;-42
2021/12/09 00:13:20;;;;;;;44.10;20.35;;;0.00;99.90;;;;;;5050695;28;20436;-43
2021/12/09 00:15:46;;;;;;;42.40;21.02;;;1.20;99.90;;;;;;5068644;28;20041;-42
2021/12/09 00:18:12;;;;;;;49.65;21.73;;;-0.10;99.90;;;;;;5050096;28;20051;-43
2021/12/09 00:20:38;;;;;;;36.42;19.02;;;-0.10;99.90;;;;;;5068803;28;20554;-43
2021/12/09 00:23:05;;;;;;;39.92;19.27;;;-0.10;99.90;;;;;;5068467;28;20127;-43
2021/12/09 00:25:30;;;;;;;43.22;20.55;;;-0.10;99.90;;;;;;5068644;28;20072;-43
2021/12/09 00:27:56;;;;;;;49.45;21.42;;;-0.20;99.90;;;;;;5068096;28;20076;-43
2021/12/09 00:30:22;;;;;;;45.20;22.52;;;-0.20;99.90;;;;;;5068497;28;20057;-43
2021/12/09 00:32:48;;;;;;;41.47;20.10;;;-0.30;99.90;;;;;;5068315;28;20061;-42
2021/12/09 00:35:16;;;;;;;32.55;18.88;;;-0.30;99.90;;;;;;5068728;28;20117;-43
2021/12/09 00:37:59;;;;;;;37.85;20.02;;;-0.30;99.90;;;;;;5068173;28;20494;-43
2021/12/09 00:40:26;;;;;;;43.15;21.08;;;-0.30;99.90;;;;;;5068533;28;20040;-42
2021/12/09 00:42:51;;;;;;;38.00;19.98;;;-0.30;99.90;;;;;;5068498;28;20461;-42
2021/12/09 00:45:17;;;;;;;49.08;21.77;;;-0.40;99.90;;;;;;5050679;28;20046;-43
2021/12/09 00:47:43;;;;;;;52.42;24.92;;;-0.40;99.90;;;;;;5068335;28;20047;-42
2021/12/09 00:50:09;;;;;;;45.03;21.70;;;-0.40;99.90;;;;;;5068155;28;20045;-43
2021/12/09 00:52:36;;;;;;;46.03;21.25;;;-0.40;99.90;;;;;;5068408;28;20489;-42
2021/12/09 00:55:03;;;;;;;43.20;21.27;;;-0.40;99.90;;;;;;5067997;28;20036;-43
2021/12/09 00:57:29;;;;;;;48.50;25.52;;;-0.30;99.90;;;;;;5050444;28;20066;-42
2021/12/09 00:59:55;;;;;;;41.97;23.13;;;-0.40;99.90;;;;;;5067692;28;20471;-42
2021/12/09 01:02:21;;;;;;;47.38;23.85;;;-0.40;99.90;;;;;;5070973;28;20041;-42
2021/12/09 01:04:47;;;;;;;49.38;26.48;;;-0.40;99.90;;;;;;5072016;28;20127;-43
2021/12/09 01:07:13;;;;;;;46.22;22.38;;;-0.40;99.90;;;;;;5053762;28;20044;-42
2021/12/09 01:09:39;;;;;;;59.17;28.98;;;-0.50;99.90;;;;;;5072094;28;20075;-42
2021/12/09 01:12:06;;;;;;;43.17;23.80;;;-0.50;99.90;;;;;;5071480;28;20509;-42
2021/12/09 01:14:32;;;;;;;55.65;26.60;;;-0.40;99.90;;;;;;5071516;28;20124;-43
2021/12/09 01:16:58;;;;;;;46.90;24.80;;;-0.40;99.90;;;;;;5071424;28;20664;-42
2021/12/09 01:19:24;;;;;;;55.80;28.50;;;-0.50;99.90;;;;;;5071329;28;20128;-42
2021/12/09 01:21:50;;;;;;;48.67;25.45;;;-0.40;99.90;;;;;;5071608;28;20052;-42
2021/12/09 01:24:15;;;;;;;49.75;23.52;;;-0.40;99.90;;;;;;5071588;28;20040;-44
2021/12/09 01:26:41;;;;;;;55.05;27.40;;;-0.40;99.90;;;;;;5071947;28;20135;-43
2021/12/09 01:29:17;;;;;;;53.33;28.00;;;-0.30;99.90;;;;;;5069028;28;20057;-42
2021/12/09 01:31:51;;;;;;;52.90;25.92;;;-0.30;99.90;;;;;;5071513;28;20052;-44
2021/12/09 01:34:19;;;;;;;60.50;29.48;;;-0.30;99.90;;;;;;5069709;28;20098;-43
2021/12/09 01:36:47;;;;;;;54.58;28.98;;;-0.30;99.90;;;;;;5071040;28;20424;-43
2021/12/09 01:39:13;;;;;;;78.88;38.10;;;-0.30;99.90;;;;;;5070985;28;20375;-42
2021/12/09 01:41:39;;;;;;;61.65;31.42;;;-0.30;99.90;;;;;;5071106;28;20052;-42
2021/12/09 01:44:05;;;;;;;62.28;28.77;;;-0.30;99.90;;;;;;5070998;28;20490;-42
2021/12/09 01:46:31;;;;;;;75.07;33.22;;;-0.40;99.90;;;;;;5070951;28;20504;-42
2021/12/09 01:48:57;;;;;;;73.00;33.15;;;-0.40;99.90;;;;;;5071115;28;20044;-45
2021/12/09 01:51:23;;;;;;;66.57;32.78;;;0.20;99.90;;;;;;5071694;28;20131;-42
2021/12/09 01:53:50;;;;;;;60.15;26.10;;;-0.40;99.90;;;;;;5072099;28;20132;-42
2021/12/09 01:56:28;;;;;;;52.28;25.85;;;-0.40;99.90;;;;;;5070853;28;20516;-43
2021/12/09 01:59:14;;;;;;;69.65;32.20;;;0.10;99.90;;;;;;5071397;28;20044;-43
2021/12/09 02:01:40;;;;;;;59.90;28.67;;;-0.40;99.90;;;;;;5071481;28;20041;-44
2021/12/09 02:04:08;;;;;;;76.55;33.40;;;-0.40;99.90;;;;;;5071194;28;20502;-42
2021/12/09 02:06:40;;;;;;;45.33;26.05;;;-0.40;99.90;;;;;;5071229;28;20040;-43
2021/12/09 02:09:11;;;;;;;52.67;26.67;;;-0.40;99.90;;;;;;5071181;28;20048;-43
2021/12/09 02:11:37;;;;;;;96.35;39.63;;;-0.40;99.90;;;;;;5070841;28;20438;-43
2021/12/09 02:14:04;;;;;;;67.63;32.13;;;-0.30;99.90;;;;;;5070432;28;20529;-42
2021/12/09 02:16:30;;;;;;;55.92;29.95;;;-0.40;99.90;;;;;;5071410;28;20070;-43
2021/12/09 02:18:56;;;;;;;54.35;28.85;;;-0.40;99.90;;;;;;5071376;28;20053;-43
2021/12/09 02:21:27;;;;;;;69.72;31.08;;;-0.50;99.90;;;;;;5071022;28;20036;-42
2021/12/09 02:24:05;;;;;;;89.95;37.88;;;-0.50;99.90;;;;;;5071391;28;20091;-42
2021/12/09 02:26:40;;;;;;;57.33;28.38;;;-0.50;99.90;;;;;;5070367;28;20052;-42
2021/12/09 02:29:09;;;;;;;79.75;34.70;;;-0.50;99.90;;;;;;5070531;28;20471;-42
2021/12/09 02:31:35;;;;;;;59.75;29.33;;;-0.60;99.90;;;;;;5070598;28;20052;-42
2021/12/09 02:34:02;;;;;;;58.78;31.58;;;-0.50;99.90;;;;;;5070646;28;20045;-42
2021/12/09 02:36:30;;;;;;;51.95;27.35;;;-0.50;99.90;;;;;;5070221;28;20044;-43
2021/12/09 02:38:56;;;;;;;85.53;34.20;;;-0.50;99.90;;;;;;5070049;28;20114;-42
2021/12/09 02:41:25;;;;;;;69.85;32.13;;;-0.50;99.90;;;;;;5070017;28;20080;-42
2021/12/09 02:44:04;;;;;;;78.50;36.40;;;-0.50;99.90;;;;;;5070286;28;20036;-43
2021/12/09 02:46:37;;;;;;;79.03;34.70;;;-0.50;99.90;;;;;;5070264;28;20048;-42
2021/12/09 02:49:14;;;;;;;113.53;42.30;;;-0.50;99.90;;;;;;5070417;28;20123;-42
2021/12/09 02:51:42;;;;;;;54.30;29.40;;;-0.40;99.90;;;;;;5069796;28;20056;-43
2021/12/09 02:54:10;;;;;;;69.80;33.42;;;-0.40;99.90;;;;;;5070329;28;20076;-43
2021/12/09 02:56:37;;;;;;;80.50;35.15;;;-0.40;99.90;;;;;;5051846;28;20083;-43
2021/12/09 02:59:04;;;;;;;69.00;31.67;;;-0.40;99.90;;;;;;5070096;28;20040;-43
2021/12/09 03:01:34;;;;;;;60.10;31.88;;;-0.40;99.90;;;;;;5068300;28;20048;-43
2021/12/09 03:04:02;;;;;;;60.88;30.83;;;-0.40;99.90;;;;;;5069466;28;20047;-42
2021/12/09 03:06:34;;;;;;;85.80;35.97;;;-0.50;99.90;;;;;;5069413;28;20044;-42
2021/12/09 03:09:03;;;;;;;;;;;-0.50;99.90;;;;;;5070314;28;20037;-42
2021/12/09 03:11:30;;;;;;;66.65;30.17;;;-0.50;99.90;;;;;;5070000;28;19950;-42
2021/12/09 03:13:56;;;;;;;66.05;31.73;;;-0.60;99.90;;;;;;5069434;28;20141;-42
2021/12/09 03:16:22;;;;;;;108.43;42.70;;;-0.60;99.90;;;;;;5069856;28;20115;-42
2021/12/09 03:18:56;;;;;;;77.60;35.75;;;-0.60;99.90;;;;;;5069029;28;20055;-42
2021/12/09 03:21:28;;;;;;;71.07;32.92;;;-0.60;99.90;;;;;;5070054;28;20044;-43
2021/12/09 03:23:55;;;;;;;74.00;33.45;;;-0.80;99.90;;;;;;5069402;28;20094;-42
2021/12/09 03:26:28;;;;;;;72.80;33.60;;;-0.70;99.90;;;;;;5069363;28;20032;-42
2021/12/09 03:28:58;;;;;;;81.95;38.17;;;-0.70;99.90;;;;;;5051372;28;20052;-42
2021/12/09 03:31:24;;;;;;;73.18;34.17;;;-0.70;99.90;;;;;;5069308;28;20117;-42
2021/12/09 03:33:50;;;;;;;66.78;34.53;;;-0.70;99.90;;;;;;5068889;28;20044;-42
2021/12/09 03:36:16;;;;;;;83.72;38.63;;;-0.60;99.90;;;;;;5069293;28;20468;-43
2021/12/09 03:38:42;;;;;;;70.60;33.40;;;-0.60;99.90;;;;;;5069286;28;20047;-42
2021/12/09 03:41:08;;;;;;;75.18;35.00;;;-0.60;99.90;;;;;;5069064;28;20124;-42
2021/12/09 03:43:34;;;;;;;75.82;35.83;;;-0.60;99.90;;;;;;5069020;28;20115;-42
2021/12/09 03:46:16;;;;;;;94.95;39.08;;;-0.60;99.90;;;;;;5069428;28;20036;-42
2021/12/09 03:48:42;;;;;;;115.05;45.35;;;-0.60;99.90;;;;;;5069667;28;20851;-44
2021/12/09 03:51:08;;;;;;;133.63;46.85;;;-0.60;99.90;;;;;;5069822;28;20136;-42
2021/12/09 03:53:34;;;;;;;80.25;37.67;;;-0.70;99.90;;;;;;5069024;28;20379;-42
2021/12/09 03:56:09;;;;;;;86.15;36.58;;;-0.60;99.90;;;;;;5069232;28;20446;-42
2021/12/09 03:58:34;;;;;;;76.82;37.47;;;-0.70;99.90;;;;;;5069082;28;20048;-43
2021/12/09 04:01:00;;;;;;;73.80;34.50;;;-0.70;99.90;;;;;;5067822;28;20102;-42
2021/12/09 04:03:32;;;;;;;81.72;36.60;;;-0.70;99.90;;;;;;5069493;28;20490;-45
2021/12/09 04:05:58;;;;;;;92.43;40.57;;;-0.70;99.90;;;;;;5069148;28;20075;-42
2021/12/09 04:08:23;;;;;;;85.30;38.03;;;-0.80;99.90;;;;;;5069658;28;20032;-42
2021/12/09 04:10:49;;;;;;;100.95;41.85;;;-0.70;99.90;;;;;;5068772;28;20080;-43
2021/12/09 04:13:16;;;;;;;77.65;38.42;;;-0.70;99.90;;;;;;5069198;28;20350;-43
2021/12/09 04:15:43;;;;;;;97.40;40.28;;;-0.70;99.90;;;;;;5068915;28;20064;-42
2021/12/09 04:18:09;;;;;;;98.57;43.22;;;-0.70;99.90;;;;;;5069136;28;20118;-43
2021/12/09 04:20:35;;;;;;;98.35;43.35;;;-0.80;99.90;;;;;;5069114;28;20044;-42
2021/12/09 04:23:01;;;;;;;90.43;40.53;;;-0.70;99.90;;;;;;5068988;28;20419;-43
2021/12/09 04:25:26;;;;;;;92.82;41.50;;;-0.70;99.90;;;;;;5068872;28;20047;-42
2021/12/09 04:27:55;;;;;;;100.88;43.72;;;-0.70;99.90;;;;;;5068860;28;20040;-42
2021/12/09 04:30:23;;;;;;;76.70;37.80;;;-0.70;99.90;;;;;;5068546;28;20099;-42
2021/12/09 04:32:51;;;;;;;79.32;37.67;;;-0.70;99.90;;;;;;5068365;28;20044;-42
2021/12/09 04:35:17;;;;;;;87.05;40.97;;;-0.60;99.90;;;;;;5068903;28;20051;-42
2021/12/09 04:37:43;;;;;;;86.97;39.15;;;-0.60;99.90;;;;;;5072457;28;20041;-42
2021/12/09 04:40:10;;;;;;;95.20;43.20;;;-0.60;99.90;;;;;;5072703;28;20086;-43
2021/12/09 04:42:37;;;;;;;104.18;42.55;;;-0.60;99.90;;;;;;5072547;28;20048;-42
2021/12/09 04:45:05;;;;;;;92.80;41.15;;;-0.60;99.90;;;;;;5073668;28;20037;-42
2021/12/09 04:47:31;;;;;;;100.30;42.40;;;-0.60;99.90;;;;;;5072545;28;20049;-42
2021/12/09 04:49:56;;;;;;;101.78;39.05;;;-0.60;99.90;;;;;;5072260;28;20040;-43
2021/12/09 04:52:23;;;;;;;88.20;39.28;;;-0.60;99.90;;;;;;5072705;28;20082;-43
2021/12/09 04:54:49;;;;;;;92.25;42.35;;;-0.60;99.90;;;;;;5072828;28;20044;-43
2021/12/09 04:57:15;;;;;;;95.93;37.20;;;-0.60;99.90;;;;;;5072675;28;20155;-43
2021/12/09 04:59:41;;;;;;;95.20;42.22;;;-0.60;99.90;;;;;;5071825;28;20048;-42
2021/12/09 05:02:12;;;;;;;88.50;38.35;;;-0.80;99.90;;;;;;5071766;28;20041;-42
2021/12/09 05:04:38;;;;;;;94.70;40.55;;;-0.60;99.90;;;;;;5072806;28;20525;-42
2021/12/09 05:07:04;;;;;;;94.18;43.17;;;-0.60;99.90;;;;;;5072202;28;20036;-42
2021/12/09 05:09:41;;;;;;;88.22;39.53;;;-0.60;99.90;;;;;;5072489;28;20045;-43
2021/12/09 05:12:08;;;;;;;107.07;42.15;;;-0.60;99.90;;;;;;5072625;28;20048;-42
2021/12/09 05:14:34;;;;;;;107.68;42.00;;;-0.70;99.90;;;;;;5072897;28;20045;-42
2021/12/09 05:17:01;;;;;;;85.65;37.85;;;-0.60;99.90;;;;;;5072519;28;20052;-42
2021/12/09 05:19:26;;;;;;;82.70;39.00;;;-0.70;99.90;;;;;;5072672;28;20050;-44
2021/12/09 05:21:54;;;;;;;95.28;40.50;;;-0.70;99.90;;;;;;5071582;28;20143;-42
2021/12/09 05:24:20;;;;;;;86.22;37.35;;;-0.60;99.90;;;;;;5072267;28;20438;-42
2021/12/09 05:26:51;;;;;;;96.18;38.03;;;-0.60;99.90;;;;;;5071965;28;20123;-42
2021/12/09 05:29:21;;;;;;;82.38;37.75;;;-0.60;99.90;;;;;;5072128;28;20058;-42
2021/12/09 05:34:31;;;;;;;76.25;38.60;;;-0.60;99.90;;;;;;5072978;28;20044;-43
2021/12/09 05:37:05;;;;;;;94.57;43.13;;;-0.60;99.90;;;;;;5071594;28;20070;-42
2021/12/09 05:39:31;;;;;;;111.85;44.28;;;-0.60;99.90;;;;;;5071557;28;20053;-42
2021/12/09 05:41:57;;;;;;;109.72;44.00;;;-0.60;99.90;;;;;;5071730;28;20036;-43
2021/12/09 05:44:23;;;;;;;122.25;47.50;;;-0.60;99.90;;;;;;5072598;28;20041;-42
2021/12/09 05:46:49;;;;;;;84.93;38.13;;;-0.70;99.90;;;;;;5071030;28;20123;-42
2021/12/09 05:49:15;;;;;;;92.80;42.08;;;-0.50;99.90;;;;;;5070694;28;20573;-43
2021/12/09 05:51:43;;;;;;;115.55;46.60;;;-0.40;99.90;;;;;;5071290;28;20044;-43
2021/12/09 05:54:09;;;;;;;91.70;42.17;;;-0.40;99.90;;;;;;5071421;28;20444;-42
2021/12/09 05:56:36;;;;;;;109.80;46.42;;;-0.30;99.90;;;;;;5071814;28;20044;-43
2021/12/09 05:59:02;;;;;;;124.93;49.13;;;-0.30;99.90;;;;;;5071189;28;20409;-43
2021/12/09 06:01:28;;;;;;;104.97;45.60;;;-0.40;99.90;;;;;;5070098;28;20080;-42
2021/12/09 06:03:54;;;;;;;102.50;42.33;;;-0.30;99.90;;;;;;5070879;28;20083;-42
2021/12/09 06:06:20;;;;;;;139.82;52.33;;;-0.40;99.90;;;;;;5070767;28;20102;-43
2021/12/09 06:08:46;;;;;;;103.43;45.78;;;-0.40;99.90;;;;;;5070983;28;20043;-43
2021/12/09 06:11:12;;;;;;;98.70;43.42;;;-0.50;99.90;;;;;;5070739;28;20037;-43
2021/12/09 06:13:39;;;;;;;105.80;45.88;;;-0.40;99.90;;;;;;5071316;28;20064;-42
2021/12/09 06:16:07;;;;;;;128.43;48.97;;;-0.50;99.90;;;;;;5070791;28;20055;-42
2021/12/09 06:18:33;;;;;;;104.72;44.17;;;-0.40;99.90;;;;;;5071098;28;20093;-42
2021/12/09 06:20:59;;;;;;;97.72;38.47;;;-0.30;99.90;;;;;;5070636;28;20128;-44
2021/12/09 06:23:25;;;;;;;116.68;44.33;;;-0.30;99.90;;;;;;5070133;28;20123;-42
2021/12/09 06:25:51;;;;;;;115.20;46.83;;;0.70;99.90;;;;;;5070407;28;20098;-43
2021/12/09 06:28:18;;;;;;;110.88;45.88;;;-0.30;99.90;;;;;;5070432;28;20044;-42
2021/12/09 06:30:45;;;;;;;155.63;52.30;;;-0.30;99.90;;;;;;5067216;28;20060;-43
2021/12/09 06:33:11;;;;;;;103.95;44.95;;;-0.30;99.90;;;;;;5052005;28;20059;-43
2021/12/09 06:35:49;;;;;;;110.05;45.83;;;-0.30;99.90;;;;;;5070568;28;20106;-42
2021/12/09 06:38:16;;;;;;;111.20;45.17;;;-0.40;99.90;;;;;;5069820;28;20044;-43
2021/12/09 06:40:43;;;;;;;121.63;48.80;;;-0.40;99.90;;;;;;5070216;28;20548;-42
2021/12/09 06:43:09;;;;;;;108.57;47.30;;;-0.40;99.90;;;;;;5070016;28;20037;-42
2021/12/09 06:45:35;;;;;;;113.28;47.15;;;-0.40;99.90;;;;;;5070192;28;20051;-42
2021/12/09 06:48:00;;;;;;;108.80;47.25;;;-0.40;99.90;;;;;;5069889;28;20052;-44
2021/12/09 06:50:26;;;;;;;109.03;46.55;;;-0.40;99.90;;;;;;5069987;28;20139;-42
2021/12/09 06:52:52;;;;;;;119.43;47.17;;;-0.40;99.90;;;;;;5069642;28;20037;-42
2021/12/09 06:55:19;;;;;;;120.43;50.15;;;-0.40;99.90;;;;;;5069482;28;20062;-42
2021/12/09 06:57:47;;;;;;;110.05;42.65;;;-0.40;99.90;;;;;;5069692;28;20040;-42
2021/12/09 07:00:33;;;;;;;109.43;43.28;;;-0.40;99.90;;;;;;5067762;28;20051;-43
2021/12/09 07:03:01;;;;;;;107.38;44.88;;;-0.50;99.90;;;;;;5069555;28;20048;-42
2021/12/09 07:05:29;;;;;;;105.82;45.28;;;-0.50;99.90;;;;;;5051583;28;20115;-42
2021/12/09 07:07:56;;;;;;;128.93;51.65;;;-0.50;99.90;;;;;;5069406;28;20040;-43
2021/12/09 07:10:22;;;;;;;136.18;52.42;;;-0.50;99.90;;;;;;5069304;28;20800;-42
2021/12/09 07:12:49;;;;;;;110.15;47.85;;;-0.60;99.90;;;;;;5069545;28;20040;-42
2021/12/09 07:15:16;;;;;;;143.68;52.28;;;-0.50;99.90;;;;;;5069182;28;20479;-42
2021/12/09 07:17:42;;;;;;;125.70;51.83;;;-0.60;99.90;;;;;;5069349;28;20086;-42
2021/12/09 07:20:11;;;;;;;114.28;48.50;;;-0.60;99.90;;;;;;5069776;28;20036;-43
2021/12/09 07:22:38;;;;;;;118.82;50.60;;;-0.60;99.90;;;;;;5069385;28;20045;-42
2021/12/09 07:25:04;;;;;;;127.05;52.35;;;-0.60;99.90;;;;;;5069299;28;20200;-43
2021/12/09 07:27:30;;;;;;;112.25;47.80;;;-0.60;99.90;;;;;;5068918;28;20056;-43
2021/12/09 07:29:56;;;;;;;108.45;48.78;;;-0.60;99.90;;;;;;5069577;28;20105;-43
2021/12/09 07:32:22;;;;;;;124.45;48.40;;;-0.60;99.90;;;;;;5069146;28;20432;-42
2021/12/09 07:34:48;;;;;;;121.65;49.53;;;-0.60;99.90;;;;;;5069335;28;20374;-42
2021/12/09 07:37:14;;;;;;;130.23;51.15;;;-0.60;99.90;;;;;;5069390;28;20040;-43
2021/12/09 07:39:39;;;;;;;112.78;48.55;;;-0.60;99.90;;;;;;5068675;28;20040;-43
2021/12/09 07:42:06;;;;;;;147.00;55.40;;;0.30;99.90;;;;;;5069004;28;20118;-43
2021/12/09 07:44:32;;;;;;;128.82;53.42;;;-3.30;99.90;;;;;;5069024;28;20474;-42
2021/12/09 07:46:58;;;;;;;144.02;56.00;;;-0.60;99.90;;;;;;5069463;28;20044;-43
2021/12/09 07:49:25;;;;;;;125.82;50.10;;;-0.60;99.90;;;;;;5069039;28;20036;-42
2021/12/09 07:51:51;;;;;;;112.05;49.97;;;-0.50;99.90;;;;;;5068800;28;20495;-43
2021/12/09 07:54:17;;;;;;;111.97;47.95;;;-0.60;99.90;;;;;;5068908;28;20032;-42
2021/12/09 07:56:44;;;;;;;113.60;47.30;;;-0.60;99.90;;;;;;5068762;28;20045;-43
2021/12/09 07:59:11;;;;;;;117.45;49.72;;;-0.70;99.90;;;;;;5068923;28;20052;-42
2021/12/09 08:01:38;;;;;;;124.97;51.05;;;-0.60;99.90;;;;;;5067502;28;20063;-43
2021/12/09 08:04:04;;;;;;;112.60;46.80;;;0.30;99.90;;;;;;5069030;28;20071;-42
2021/12/09 08:06:30;;;;;;;130.60;49.03;;;-0.60;99.90;;;;;;5068567;28;20049;-42
2021/12/09 08:08:57;;;;;;;126.15;49.75;;;-0.60;99.90;;;;;;5068651;28;20051;-42
2021/12/09 08:11:23;;;;;;;128.75;50.30;;;-0.60;99.90;;;;;;5070621;28;20045;-42
2021/12/09 08:13:49;;;;;;;116.32;46.30;;;-0.60;99.90;;;;;;5073213;28;20581;-43
2021/12/09 08:16:16;;;;;;;106.63;48.83;;;0.00;99.90;;;;;;5072571;28;20520;-42
2021/12/09 08:18:53;;;;;;;124.18;49.03;;;-0.60;99.90;;;;;;5072466;28;20044;-43
2021/12/09 08:21:24;;;;;;;113.43;47.72;;;-0.50;99.90;;;;;;5072736;28;20036;-42
2021/12/09 08:23:51;;;;;;;111.68;45.97;;;-0.50;99.90;;;;;;5072700;28;20044;-42
2021/12/09 08:26:17;;;;;;;110.10;46.67;;;-0.50;99.90;;;;;;5072693;28;20051;-42
2021/12/09 08:28:43;;;;;;;114.68;47.85;;;-0.40;99.90;;;;;;5072707;28;20063;-43
2021/12/09 08:31:09;;;;;;;100.03;42.70;;;-0.40;99.90;;;;;;5072439;28;20087;-43
2021/12/09 08:33:35;;;;;;;110.00;45.85;;;-0.40;99.90;;;;;;5072148;28;20079;-42
2021/12/09 08:36:00;;;;;;;130.85;51.03;;;-0.40;99.90;;;;;;5072391;28;20062;-42
2021/12/09 08:38:26;;;;;;;99.63;42.70;;;-0.40;99.90;;;;;;5072258;28;20070;-42
2021/12/09 08:40:53;;;;;;;121.90;46.47;;;-0.40;99.90;;;;;;5054721;28;20044;-42
2021/12/09 08:43:21;;;;;;;108.63;43.88;;;-0.40;99.90;;;;;;5054295;28;20049;-42
2021/12/09 08:45:48;;;;;;;104.32;43.10;;;-0.50;99.90;;;;;;5072167;28;20043;-42
2021/12/09 08:48:15;;;;;;;116.43;46.45;;;-0.40;99.90;;;;;;5072268;28;20713;-43
2021/12/09 08:50:43;;;;;;;121.78;45.60;;;-0.40;99.90;;;;;;5072175;28;20494;-43
2021/12/09 08:53:12;;;;;;;90.65;39.13;;;-0.40;99.90;;;;;;5071912;28;20044;-43
2021/12/09 08:55:39;;;;;;;131.35;48.65;;;-0.30;99.90;;;;;;5071928;28;20616;-42
2021/12/09 08:58:05;;;;;;;91.38;40.72;;;-0.30;99.90;;;;;;5071929;28;20055;-42
2021/12/09 09:00:32;;;;;;;93.68;41.45;;;-1.00;99.90;;;;;;5070024;28;20044;-43
2021/12/09 09:02:59;;;;;;;111.03;46.55;;;-0.30;99.90;;;;;;5071659;28;20036;-44
2021/12/09 09:05:25;;;;;;;84.63;39.13;;;-0.30;99.90;;;;;;5071602;28;20098;-42
2021/12/09 09:07:52;;;;;;;97.68;42.25;;;-0.20;99.90;;;;;;5071127;28;20777;-43
2021/12/09 09:10:21;;;;;;;88.95;40.63;;;-0.30;99.90;;;;;;5071370;28;20036;-42
2021/12/09 09:12:47;;;;;;;94.05;41.15;;;-0.20;99.90;;;;;;5053123;28;20433;-42
2021/12/09 09:15:16;;;;;;;86.13;38.97;;;-0.20;99.90;;;;;;5071369;28;20128;-42
2021/12/09 09:17:42;;;;;;;81.70;38.67;;;-0.10;99.90;;;;;;5071343;28;20036;-44
2021/12/09 09:20:11;;;;;;;76.70;37.78;;;-0.10;99.90;;;;;;5071815;28;20050;-43
2021/12/09 09:22:38;;;;;;;81.28;35.97;;;-0.10;99.90;;;;;;5069039;28;20316;-42
2021/12/09 09:25:07;;;;;;;93.55;39.78;;;0.00;99.90;;;;;;5071625;28;20040;-42
2021/12/09 09:27:33;;;;;;;83.05;38.40;;;0.00;99.90;;;;;;5071554;28;20040;-42
2021/12/09 09:29:59;;;;;;;77.25;34.63;;;0.00;99.90;;;;;;5067701;28;20556;-42
2021/12/09 09:32:24;;;;;;;71.30;34.80;;;0.00;99.90;;;;;;5071947;28;20037;-42
2021/12/09 09:34:53;;;;;;;83.22;36.63;;;0.00;99.90;;;;;;5070301;28;20040;-43
2021/12/09 09:37:20;;;;;;;70.07;30.05;;;0.00;99.90;;;;;;5071161;28;20385;-42
2021/12/09 09:39:47;;;;;;;68.82;33.47;;;0.00;99.90;;;;;;5070759;28;20051;-43
2021/12/09 09:44:54;;;;;;;67.78;32.08;;;-0.10;99.90;;;;;;5070453;28;20045;-42
2021/12/09 09:47:21;;;;;;;65.03;29.52;;;0.10;99.90;;;;;;5070880;28;20043;-42
2021/12/09 09:49:48;;;;;;;65.00;30.08;;;0.00;99.90;;;;;;5069970;28;20044;-44
2021/12/09 09:52:13;;;;;;;58.53;29.15;;;0.10;99.90;;;;;;5068241;28;20565;-42
2021/12/09 09:54:40;;;;;;;53.33;28.00;;;0.10;99.90;;;;;;5070244;28;20040;-44
2021/12/09 09:57:07;;;;;;;56.00;28.20;;;1.20;99.90;;;;;;5070221;28;20558;-43
2021/12/09 09:59:34;;;;;;;58.55;29.13;;;0.10;99.90;;;;;;5066882;28;20045;-42
2021/12/09 10:02:00;;;;;;;62.08;30.02;;;0.10;99.90;;;;;;5069818;28;20044;-42
2021/12/09 10:04:33;;;;;;;54.95;29.67;;;0.20;99.90;;;;;;5069914;28;20119;-44
2021/12/09 10:07:00;;;;;;;62.17;30.75;;;0.20;99.90;;;;;;5070438;28;20047;-43
2021/12/09 10:09:27;;;;;;;67.95;32.88;;;0.20;99.90;;;;;;5070610;28;20383;-42
2021/12/09 10:11:55;;;;;;;63.17;31.63;;;0.30;99.90;;;;;;5070690;28;20051;-45
2021/12/09 10:14:34;;;;;;;43.92;23.73;;;0.30;99.90;;;;;;5070591;28;20440;-42
2021/12/09 10:17:18;;;;;;;51.53;28.30;;;0.30;99.90;;;;;;5070660;28;20056;-42
2021/12/09 10:19:47;;;;;;;54.03;26.20;;;0.40;99.90;;;;;;5052423;28;20055;-43
2021/12/09 10:22:21;;;;;;;55.35;28.20;;;0.50;99.90;;;;;;5070617;28;20040;-42
2021/12/09 10:24:49;;;;;;;42.70;23.08;;;1.70;99.90;;;;;;5016822;28;20037;-55
2021/12/09 10:27:27;;;;;;;49.17;26.45;;;0.90;99.90;;;;;;5050933;28;20052;-56
2021/12/09 10:30:02;;;;;;;54.17;27.15;;;1.00;99.90;;;;;;5056584;28;20057;-58
2021/12/09 10:32:32;;;;;;;51.40;24.77;;;1.20;99.90;;;;;;5060031;28;20085;-57
2021/12/09 10:35:12;;;;;;;52.70;26.90;;;1.20;99.90;;;;;;5059121;28;20072;-58
2021/12/09 10:37:40;;;;;;;51.67;24.17;;;1.50;99.90;;;;;;5061194;28;20041;-58
2021/12/09 10:40:06;;;;;;;45.28;23.52;;;1.40;99.90;;;;;;5040405;28;20044;-53
2021/12/09 10:42:37;;;;;;;50.20;27.75;;;1.40;99.90;;;;;;5059912;28;20032;-58
2021/12/09 10:45:03;;;;;;;45.43;23.87;;;1.40;99.90;;;;;;5060547;28;20032;-57
2021/12/09 10:50:11;;;;;;;44.35;23.08;;;1.40;99.90;;;;;;5061053;28;20048;-56
2021/12/09 10:52:43;;;;;;;44.05;22.00;;;1.10;99.90;;;;;;5061556;28;20444;-60
2021/12/09 10:55:30;;;;;;;45.38;23.80;;;1.40;99.90;;;;;;5041202;28;20250;-59
2021/12/09 10:58:06;;;;;;;53.65;24.33;;;1.40;99.90;;;;;;5042864;28;20099;-58
2021/12/09 11:00:52;;;;;;;47.00;25.25;;;1.50;99.90;;;;;;5057091;28;20159;-56
2021/12/09 11:03:17;;;;;;;43.22;23.13;;;1.60;99.90;;;;;;5058831;28;20032;-57
2021/12/09 11:05:59;;;;;;;43.80;24.30;;;0.30;99.90;;;;;;5058744;28;20390;-56
2021/12/09 11:08:47;;;;;;;43.27;23.27;;;1.90;99.90;;;;;;5042502;28;20040;-57
2021/12/09 11:11:25;;;;;;;53.53;26.20;;;1.90;99.90;;;;;;5041521;28;20663;-50
2021/12/09 11:14:04;;;;;;;51.17;26.42;;;2.00;99.90;;;;;;5059952;28;20042;-60
2021/12/09 11:16:37;;;;;;;45.70;24.00;;;2.10;99.90;;;;;;5059016;28;20705;-59
2021/12/09 11:19:09;;;;;;;53.03;25.90;;;2.10;99.90;;;;;;5059847;28;20402;-59
2021/12/09 11:21:41;;;;;;;44.60;25.40;;;3.10;99.90;;;;;;5060587;28;20359;-58
2021/12/09 11:24:14;;;;;;;51.45;25.63;;;2.10;99.90;;;;;;5047945;28;20405;-57
2021/12/09 11:27:01;;;;;;;53.30;28.77;;;2.70;99.90;;;;;;5056807;28;20029;-67
2021/12/09 11:29:40;;;;;;;59.72;29.80;;;5.90;99.90;;;;;;5038228;28;20382;-65
2021/12/09 11:32:32;;;;;;;57.33;26.75;;;2.20;99.90;;;;;;5040138;28;20406;-44
2021/12/09 11:35:15;;;;;;;58.10;28.80;;;2.30;99.90;;;;;;5059421;28;20052;-46
2021/12/09 11:40:28;;;;;;;72.55;30.15;;;2.20;99.90;;;;;;5057983;28;19971;-49
2021/12/09 11:42:58;;;;;;;60.63;28.30;;;2.30;99.90;;;;;;5053915;28;20131;-47
2021/12/09 11:45:45;;;;;;;60.83;27.17;;;2.30;99.90;;;;;;5038634;28;20037;-44
2021/12/09 11:48:11;;;;;;;67.95;30.35;;;2.20;99.90;;;;;;5053978;28;20044;-45
2021/12/09 11:50:49;;;;;;;59.20;28.75;;;2.10;99.90;;;;;;5059478;28;20053;-56
2021/12/09 11:53:18;;;;;;;67.50;29.65;;;2.40;99.90;;;;;;5058984;28;20040;-45
2021/12/09 11:55:50;;;;;;;72.28;30.02;;;2.20;99.90;;;;;;5041753;28;20424;-48
2021/12/09 11:58:43;;;;;;;69.63;30.58;;;2.40;99.90;;;;;;5058341;28;20124;-47
2021/12/09 12:12:44;;;;;;;63.40;31.15;;;2.40;99.90;;;;;;5057337;28;20040;-57
2021/12/09 12:40:20;;;;;;;58.38;29.20;;;2.80;99.90;;;;;;5059938;28;20039;-56
2021/12/09 12:43:01;;;;;;;50.40;27.92;;;2.80;99.90;;;;;;5053693;28;20060;-46
2021/12/09 12:45:55;;;;;;;57.50;29.67;;;2.90;99.90;;;;;;5043448;28;20152;-53
2021/12/09 12:48:45;;;;;;;61.17;29.95;;;3.00;99.90;;;;;;5040703;28;20044;-54
2021/12/09 12:51:28;;;;;;;50.90;28.05;;;3.00;99.90;;;;;;5055370;28;20066;-44
2021/12/09 12:54:32;;;;;;;63.15;32.45;;;3.80;99.90;;;;;;5058105;28;20478;-46
2021/12/09 12:57:01;;;;;;;51.80;28.48;;;3.10;99.90;;;;;;5052009;28;20398;-57
2021/12/09 12:59:34;;;;;;;49.15;25.63;;;3.10;99.90;;;;;;5057977;28;20040;-57
2021/12/09 13:02:00;;;;;;;;;;;3.10;99.90;;;;;;5059455;28;20370;-56
2021/12/09 13:04:28;;;;;;;61.03;28.63;;;3.10;99.90;;;;;;5059399;28;20302;-59
2021/12/09 13:07:00;;;;;;;58.63;28.63;;;3.30;99.90;;;;;;5058811;28;20041;-60
2021/12/09 13:09:40;;;;;;;52.28;27.85;;;3.00;99.90;;;;;;5041588;28;20045;-57
2021/12/09 13:12:11;;;;;;;60.35;29.00;;;3.00;99.90;;;;;;5056635;28;20036;-55
2021/12/09 13:15:09;;;;;;;54.47;28.20;;;2.90;99.90;;;;;;5051915;28;20099;-53
2021/12/09 13:17:42;;;;;;;53.60;28.13;;;2.90;99.90;;;;;;5052716;28;20098;-54
2021/12/09 13:20:36;;;;;;;60.13;29.33;;;2.90;99.90;;;;;;5052254;28;20048;-57
2021/12/09 13:23:24;;;;;;;62.13;30.15;;;2.90;99.90;;;;;;5051212;28;20418;-57
2021/12/09 13:26:18;;;;;;;54.53;26.10;;;2.90;99.90;;;;;;5051949;28;20187;-59